sensor_id;sensor_type;location;lat;lon;timestamp;P1;durP1;ratioP1;P2;durP2;ratioP2
24681;SDS011;12802;53.390;-2.328;2023-04-02T00:01:54;2.10;;;1.20;;
24681;SDS011;12802;53.390;-2.328;2023-04-02T00:04:40;2.58;;;1.33;;
24681;SDS011;12802;53.390;-2.328;2023-04-02T00:09:57;2.97;;;1.55;;
24681;SDS011;12802;53.390;-2.328;2023-04-02T00:12:23;3.25;;;1.30;;
24681;SDS011;12802;53.390;-2.328;2023-04-02T00:14:51;3.97;;;2.08;;
24681;SDS011;12802;53.390;-2.328;2023-04-02T00:17:19;3.88;;;1.42;;
24681;SDS011;12802;53.390;-2.328;2023-04-02T00:19:50;1.45;;;1.10;;
24681;SDS011;12802;53.390;-2.328;2023-04-02T00:22:28;2.22;;;1.45;;
24681;SDS011;12802;53.390;-2.328;2023-04-02T00:24:58;3.65;;;1.45;;
24681;SDS011;12802;53.390;-2.328;2023-04-02T00:27:25;4.85;;;1.70;;
24681;SDS011;12802;53.390;-2.328;2023-04-02T00:29:53;4.35;;;1.23;;
24681;SDS011;12802;53.390;-2.328;2023-04-02T00:32:23;2.97;;;1.73;;
24681;SDS011;12802;53.390;-2.328;2023-04-02T00:34:51;5.57;;;1.23;;
24681;SDS011;12802;53.390;-2.328;2023-04-02T00:37:19;3.88;;;1.58;;
24681;SDS011;12802;53.390;-2.328;2023-04-02T00:42:19;4.57;;;1.58;;
24681;SDS011;12802;53.390;-2.328;2023-04-02T00:44:46;2.10;;;1.10;;
24681;SDS011;12802;53.390;-2.328;2023-04-02T00:49:44;4.10;;;1.35;;
24681;SDS011;12802;53.390;-2.328;2023-04-02T00:52:18;3.17;;;1.55;;
24681;SDS011;12802;53.390;-2.328;2023-04-02T00:54:48;7.03;;;1.52;;
24681;SDS011;12802;53.390;-2.328;2023-04-02T00:57:18;2.58;;;1.60;;
24681;SDS011;12802;53.390;-2.328;2023-04-02T00:59:52;1.73;;;1.23;;
24681;SDS011;12802;53.390;-2.328;2023-04-02T01:02:32;2.17;;;1.30;;
24681;SDS011;12802;53.390;-2.328;2023-04-02T01:13:34;3.10;;;1.20;;
24681;SDS011;12802;53.390;-2.328;2023-04-02T01:16:26;2.05;;;1.40;;
24681;SDS011;12802;53.390;-2.328;2023-04-02T01:21:31;3.75;;;1.55;;
24681;SDS011;12802;53.390;-2.328;2023-04-02T01:24:10;3.60;;;1.40;;
24681;SDS011;12802;53.390;-2.328;2023-04-02T01:29:25;6.88;;;1.90;;
24681;SDS011;12802;53.390;-2.328;2023-04-02T01:31:56;3.33;;;1.40;;
24681;SDS011;12802;53.390;-2.328;2023-04-02T01:34:26;8.48;;;1.90;;
24681;SDS011;12802;53.390;-2.328;2023-04-02T01:39:40;14.55;;;1.58;;
24681;SDS011;12802;53.390;-2.328;2023-04-02T01:45:16;4.55;;;1.40;;
24681;SDS011;12802;53.390;-2.328;2023-04-02T01:47:44;7.70;;;1.90;;
24681;SDS011;12802;53.390;-2.328;2023-04-02T01:52:40;3.15;;;1.92;;
24681;SDS011;12802;53.390;-2.328;2023-04-02T01:55:09;4.30;;;1.52;;
24681;SDS011;12802;53.390;-2.328;2023-04-02T01:57:43;6.35;;;1.67;;
24681;SDS011;12802;53.390;-2.328;2023-04-02T02:00:15;3.28;;;1.52;;
24681;SDS011;12802;53.390;-2.328;2023-04-02T02:02:47;3.30;;;1.55;;
24681;SDS011;12802;53.390;-2.328;2023-04-02T02:05:16;2.90;;;1.55;;
24681;SDS011;12802;53.390;-2.328;2023-04-02T02:07:45;2.47;;;1.17;;
24681;SDS011;12802;53.390;-2.328;2023-04-02T02:10:15;2.15;;;1.20;;
24681;SDS011;12802;53.390;-2.328;2023-04-02T02:12:45;3.30;;;1.25;;
24681;SDS011;12802;53.390;-2.328;2023-04-02T02:15:13;4.38;;;1.40;;
24681;SDS011;12802;53.390;-2.328;2023-04-02T02:17:41;3.40;;;1.45;;
24681;SDS011;12802;53.390;-2.328;2023-04-02T02:20:07;3.03;;;1.33;;
24681;SDS011;12802;53.390;-2.328;2023-04-02T02:22:56;2.05;;;1.05;;
24681;SDS011;12802;53.390;-2.328;2023-04-02T02:25:26;1.80;;;1.00;;
24681;SDS011;12802;53.390;-2.328;2023-04-02T02:28:02;1.33;;;0.90;;
24681;SDS011;12802;53.390;-2.328;2023-04-02T02:30:56;1.33;;;0.80;;
24681;SDS011;12802;53.390;-2.328;2023-04-02T02:34:13;2.58;;;1.23;;
24681;SDS011;12802;53.390;-2.328;2023-04-02T02:44:36;3.33;;;1.05;;
24681;SDS011;12802;53.390;-2.328;2023-04-02T02:47:09;2.53;;;1.00;;
24681;SDS011;12802;53.390;-2.328;2023-04-02T02:49:40;1.58;;;0.77;;
24681;SDS011;12802;53.390;-2.328;2023-04-02T02:54:48;1.65;;;0.88;;
24681;SDS011;12802;53.390;-2.328;2023-04-02T02:57:25;1.83;;;0.80;;
24681;SDS011;12802;53.390;-2.328;2023-04-02T02:59:55;2.78;;;0.82;;
24681;SDS011;12802;53.390;-2.328;2023-04-02T03:02:23;1.58;;;1.10;;
24681;SDS011;12802;53.390;-2.328;2023-04-02T03:04:51;1.00;;;0.88;;
24681;SDS011;12802;53.390;-2.328;2023-04-02T03:07:22;0.47;;;0.45;;
24681;SDS011;12802;53.390;-2.328;2023-04-02T03:10:08;1.67;;;0.60;;
24681;SDS011;12802;53.390;-2.328;2023-04-02T03:15:37;0.90;;;0.40;;
24681;SDS011;12802;53.390;-2.328;2023-04-02T03:18:12;1.83;;;0.60;;
24681;SDS011;12802;53.390;-2.328;2023-04-02T03:20:51;0.98;;;0.57;;
24681;SDS011;12802;53.390;-2.328;2023-04-02T03:23:23;0.73;;;0.47;;
24681;SDS011;12802;53.390;-2.328;2023-04-02T03:26:03;1.35;;;0.70;;
24681;SDS011;12802;53.390;-2.328;2023-04-02T03:28:45;0.70;;;0.55;;
24681;SDS011;12802;53.390;-2.328;2023-04-02T03:31:30;2.65;;;1.10;;
24681;SDS011;12802;53.390;-2.328;2023-04-02T03:34:07;2.33;;;0.95;;
24681;SDS011;12802;53.390;-2.328;2023-04-02T03:42:12;1.27;;;0.80;;
24681;SDS011;12802;53.390;-2.328;2023-04-02T03:44:45;1.38;;;0.80;;
24681;SDS011;12802;53.390;-2.328;2023-04-02T03:50:30;1.95;;;0.68;;
24681;SDS011;12802;53.390;-2.328;2023-04-02T03:53:13;0.57;;;0.47;;
24681;SDS011;12802;53.390;-2.328;2023-04-02T03:55:39;1.65;;;0.70;;
24681;SDS011;12802;53.390;-2.328;2023-04-02T04:03:56;0.63;;;0.43;;
24681;SDS011;12802;53.390;-2.328;2023-04-02T04:06:33;1.25;;;0.68;;
24681;SDS011;12802;53.390;-2.328;2023-04-02T04:09:08;1.90;;;0.80;;
24681;SDS011;12802;53.390;-2.328;2023-04-02T04:14:44;2.17;;;0.68;;
24681;SDS011;12802;53.390;-2.328;2023-04-02T04:17:19;0.73;;;0.40;;
24681;SDS011;12802;53.390;-2.328;2023-04-02T04:19:51;1.20;;;0.57;;
24681;SDS011;12802;53.390;-2.328;2023-04-02T04:22:23;1.85;;;0.45;;
24681;SDS011;12802;53.390;-2.328;2023-04-02T04:24:58;1.50;;;0.77;;
24681;SDS011;12802;53.390;-2.328;2023-04-02T04:28:02;0.88;;;0.50;;
24681;SDS011;12802;53.390;-2.328;2023-04-02T04:33:30;0.53;;;0.40;;
24681;SDS011;12802;53.390;-2.328;2023-04-02T04:36:14;2.92;;;0.70;;
24681;SDS011;12802;53.390;-2.328;2023-04-02T04:38:56;0.87;;;0.53;;
24681;SDS011;12802;53.390;-2.328;2023-04-02T04:41:36;2.38;;;0.73;;
24681;SDS011;12802;53.390;-2.328;2023-04-02T04:47:14;0.77;;;0.52;;
24681;SDS011;12802;53.390;-2.328;2023-04-02T04:52:35;1.25;;;0.55;;
24681;SDS011;12802;53.390;-2.328;2023-04-02T04:57:55;1.35;;;0.80;;
24681;SDS011;12802;53.390;-2.328;2023-04-02T05:00:34;1.95;;;0.95;;
24681;SDS011;12802;53.390;-2.328;2023-04-02T05:03:29;2.35;;;1.27;;
24681;SDS011;12802;53.390;-2.328;2023-04-02T05:08:58;1.52;;;1.30;;
24681;SDS011;12802;53.390;-2.328;2023-04-02T05:11:34;1.50;;;0.90;;
24681;SDS011;12802;53.390;-2.328;2023-04-02T05:14:17;2.20;;;1.45;;
24681;SDS011;12802;53.390;-2.328;2023-04-02T05:20:15;1.58;;;0.90;;
24681;SDS011;12802;53.390;-2.328;2023-04-02T05:25:27;2.08;;;1.20;;
24681;SDS011;12802;53.390;-2.328;2023-04-02T05:33:05;2.35;;;1.30;;
24681;SDS011;12802;53.390;-2.328;2023-04-02T05:35:45;5.95;;;1.10;;
24681;SDS011;12802;53.390;-2.328;2023-04-02T05:38:26;2.20;;;1.23;;
24681;SDS011;12802;53.390;-2.328;2023-04-02T05:43:39;2.63;;;1.27;;
24681;SDS011;12802;53.390;-2.328;2023-04-02T05:46:15;8.40;;;1.42;;
24681;SDS011;12802;53.390;-2.328;2023-04-02T05:48:47;4.85;;;1.30;;
24681;SDS011;12802;53.390;-2.328;2023-04-02T05:51:20;2.65;;;1.20;;
24681;SDS011;12802;53.390;-2.328;2023-04-02T05:54:03;5.90;;;1.45;;
24681;SDS011;12802;53.390;-2.328;2023-04-02T05:56:36;3.33;;;1.63;;
24681;SDS011;12802;53.390;-2.328;2023-04-02T05:59:10;13.75;;;2.05;;
24681;SDS011;12802;53.390;-2.328;2023-04-02T06:01:44;7.18;;;1.40;;
24681;SDS011;12802;53.390;-2.328;2023-04-02T06:04:33;1.60;;;1.48;;
24681;SDS011;12802;53.390;-2.328;2023-04-02T06:07:19;4.60;;;1.83;;
24681;SDS011;12802;53.390;-2.328;2023-04-02T06:10:13;6.90;;;1.95;;
24681;SDS011;12802;53.390;-2.328;2023-04-02T06:12:47;3.45;;;1.73;;
24681;SDS011;12802;53.390;-2.328;2023-04-02T06:15:20;11.30;;;2.15;;
24681;SDS011;12802;53.390;-2.328;2023-04-02T06:17:56;5.65;;;2.20;;
24681;SDS011;12802;53.390;-2.328;2023-04-02T06:20:25;5.78;;;1.77;;
24681;SDS011;12802;53.390;-2.328;2023-04-02T06:22:54;5.43;;;2.25;;
24681;SDS011;12802;53.390;-2.328;2023-04-02T06:25:27;5.18;;;2.10;;
24681;SDS011;12802;53.390;-2.328;2023-04-02T06:28:11;6.78;;;2.22;;
24681;SDS011;12802;53.390;-2.328;2023-04-02T06:30:48;8.77;;;2.08;;
24681;SDS011;12802;53.390;-2.328;2023-04-02T06:33:17;4.32;;;2.13;;
24681;SDS011;12802;53.390;-2.328;2023-04-02T06:35:44;10.50;;;3.13;;
24681;SDS011;12802;53.390;-2.328;2023-04-02T06:38:25;9.50;;;2.47;;
24681;SDS011;12802;53.390;-2.328;2023-04-02T06:40:58;8.50;;;2.42;;
24681;SDS011;12802;53.390;-2.328;2023-04-02T06:44:07;9.80;;;2.70;;
24681;SDS011;12802;53.390;-2.328;2023-04-02T06:46:49;9.68;;;3.00;;
24681;SDS011;12802;53.390;-2.328;2023-04-02T06:52:00;13.18;;;3.78;;
24681;SDS011;12802;53.390;-2.328;2023-04-02T06:54:29;12.88;;;3.72;;
24681;SDS011;12802;53.390;-2.328;2023-04-02T06:57:00;10.25;;;3.30;;
24681;SDS011;12802;53.390;-2.328;2023-04-02T06:59:35;9.80;;;3.97;;
24681;SDS011;12802;53.390;-2.328;2023-04-02T07:02:04;7.63;;;3.60;;
24681;SDS011;12802;53.390;-2.328;2023-04-02T07:05:00;22.00;;;4.38;;
24681;SDS011;12802;53.390;-2.328;2023-04-02T07:07:30;9.38;;;3.90;;
24681;SDS011;12802;53.390;-2.328;2023-04-02T07:09:56;13.13;;;3.47;;
24681;SDS011;12802;53.390;-2.328;2023-04-02T07:12:23;9.75;;;3.20;;
24681;SDS011;12802;53.390;-2.328;2023-04-02T07:14:50;12.65;;;3.58;;
24681;SDS011;12802;53.390;-2.328;2023-04-02T07:17:17;8.80;;;3.13;;
24681;SDS011;12802;53.390;-2.328;2023-04-02T07:19:44;15.55;;;3.88;;
24681;SDS011;12802;53.390;-2.328;2023-04-02T07:22:15;13.25;;;3.55;;
24681;SDS011;12802;53.390;-2.328;2023-04-02T07:24:42;14.57;;;3.75;;
24681;SDS011;12802;53.390;-2.328;2023-04-02T07:27:09;14.70;;;3.80;;
24681;SDS011;12802;53.390;-2.328;2023-04-02T07:29:35;13.07;;;3.53;;
24681;SDS011;12802;53.390;-2.328;2023-04-02T07:32:07;13.02;;;3.40;;
24681;SDS011;12802;53.390;-2.328;2023-04-02T07:34:33;10.85;;;3.90;;
24681;SDS011;12802;53.390;-2.328;2023-04-02T07:36:59;8.10;;;3.00;;
24681;SDS011;12802;53.390;-2.328;2023-04-02T07:39:26;13.13;;;4.22;;
24681;SDS011;12802;53.390;-2.328;2023-04-02T07:41:56;10.38;;;3.22;;
24681;SDS011;12802;53.390;-2.328;2023-04-02T07:44:24;6.80;;;2.60;;
24681;SDS011;12802;53.390;-2.328;2023-04-02T07:46:50;8.70;;;3.03;;
24681;SDS011;12802;53.390;-2.328;2023-04-02T07:49:16;10.90;;;3.53;;
24681;SDS011;12802;53.390;-2.328;2023-04-02T07:51:41;8.35;;;3.72;;
24681;SDS011;12802;53.390;-2.328;2023-04-02T07:54:07;15.90;;;3.67;;
24681;SDS011;12802;53.390;-2.328;2023-04-02T07:56:34;5.15;;;2.67;;
24681;SDS011;12802;53.390;-2.328;2023-04-02T07:59:02;12.05;;;3.80;;
24681;SDS011;12802;53.390;-2.328;2023-04-02T08:01:29;12.80;;;3.30;;
24681;SDS011;12802;53.390;-2.328;2023-04-02T08:04:00;6.45;;;3.00;;
24681;SDS011;12802;53.390;-2.328;2023-04-02T08:06:27;10.40;;;3.45;;
24681;SDS011;12802;53.390;-2.328;2023-04-02T08:08:53;10.80;;;4.20;;
24681;SDS011;12802;53.390;-2.328;2023-04-02T08:11:20;5.88;;;3.00;;
24681;SDS011;12802;53.390;-2.328;2023-04-02T08:13:46;12.85;;;3.92;;
24681;SDS011;12802;53.390;-2.328;2023-04-02T08:16:12;12.82;;;3.15;;
24681;SDS011;12802;53.390;-2.328;2023-04-02T08:18:37;13.38;;;3.10;;
24681;SDS011;12802;53.390;-2.328;2023-04-02T08:21:07;6.80;;;3.42;;
24681;SDS011;12802;53.390;-2.328;2023-04-02T08:23:34;10.30;;;3.35;;
24681;SDS011;12802;53.390;-2.328;2023-04-02T08:26:01;17.13;;;4.03;;
24681;SDS011;12802;53.390;-2.328;2023-04-02T08:28:28;11.40;;;3.30;;
24681;SDS011;12802;53.390;-2.328;2023-04-02T08:30:54;8.52;;;3.40;;
24681;SDS011;12802;53.390;-2.328;2023-04-02T08:33:20;12.60;;;4.00;;
24681;SDS011;12802;53.390;-2.328;2023-04-02T08:35:46;11.55;;;2.90;;
24681;SDS011;12802;53.390;-2.328;2023-04-02T08:38:13;8.90;;;3.17;;
24681;SDS011;12802;53.390;-2.328;2023-04-02T08:40:45;8.25;;;3.00;;
24681;SDS011;12802;53.390;-2.328;2023-04-02T08:43:17;11.43;;;3.25;;
24681;SDS011;12802;53.390;-2.328;2023-04-02T08:48:51;13.05;;;3.08;;
24681;SDS011;12802;53.390;-2.328;2023-04-02T08:51:25;10.52;;;3.03;;
24681;SDS011;12802;53.390;-2.328;2023-04-02T08:54:02;7.25;;;3.28;;
24681;SDS011;12802;53.390;-2.328;2023-04-02T08:59:37;19.08;;;3.75;;
24681;SDS011;12802;53.390;-2.328;2023-04-02T09:02:19;14.98;;;3.05;;
24681;SDS011;12802;53.390;-2.328;2023-04-02T09:04:52;14.07;;;3.60;;
24681;SDS011;12802;53.390;-2.328;2023-04-02T09:07:18;12.80;;;3.22;;
24681;SDS011;12802;53.390;-2.328;2023-04-02T09:09:47;11.90;;;3.40;;
24681;SDS011;12802;53.390;-2.328;2023-04-02T09:12:18;9.82;;;3.08;;
24681;SDS011;12802;53.390;-2.328;2023-04-02T09:17:24;16.25;;;3.05;;
24681;SDS011;12802;53.390;-2.328;2023-04-02T09:20:01;10.73;;;3.63;;
24681;SDS011;12802;53.390;-2.328;2023-04-02T09:22:32;12.32;;;2.92;;
24681;SDS011;12802;53.390;-2.328;2023-04-02T09:25:00;9.65;;;2.63;;
24681;SDS011;12802;53.390;-2.328;2023-04-02T09:27:28;15.40;;;3.72;;
24681;SDS011;12802;53.390;-2.328;2023-04-02T09:30:01;9.30;;;3.03;;
24681;SDS011;12802;53.390;-2.328;2023-04-02T09:32:50;15.70;;;3.22;;
24681;SDS011;12802;53.390;-2.328;2023-04-02T09:35:19;12.70;;;2.45;;
24681;SDS011;12802;53.390;-2.328;2023-04-02T09:41:01;9.38;;;3.80;;
24681;SDS011;12802;53.390;-2.328;2023-04-02T09:43:33;11.50;;;3.47;;
24681;SDS011;12802;53.390;-2.328;2023-04-02T09:46:05;11.70;;;2.97;;
24681;SDS011;12802;53.390;-2.328;2023-04-02T09:48:40;14.25;;;3.05;;
24681;SDS011;12802;53.390;-2.328;2023-04-02T09:53:36;7.57;;;2.80;;
24681;SDS011;12802;53.390;-2.328;2023-04-02T09:56:14;7.65;;;3.50;;
24681;SDS011;12802;53.390;-2.328;2023-04-02T09:58:44;15.38;;;3.30;;
24681;SDS011;12802;53.390;-2.328;2023-04-02T10:01:27;17.00;;;3.30;;
24681;SDS011;12802;53.390;-2.328;2023-04-02T10:09:59;7.30;;;2.50;;
24681;SDS011;12802;53.390;-2.328;2023-04-02T10:12:28;15.68;;;2.90;;
24681;SDS011;12802;53.390;-2.328;2023-04-02T10:14:59;12.55;;;3.30;;
24681;SDS011;12802;53.390;-2.328;2023-04-02T10:17:27;10.95;;;2.95;;
24681;SDS011;12802;53.390;-2.328;2023-04-02T10:20:39;16.02;;;3.22;;
24681;SDS011;12802;53.390;-2.328;2023-04-02T10:22:48;12.20;;;3.15;;
24681;SDS011;12802;53.390;-2.328;2023-04-02T10:25:14;13.68;;;3.10;;
24681;SDS011;12802;53.390;-2.328;2023-04-02T10:30:25;8.13;;;2.65;;
24681;SDS011;12802;53.390;-2.328;2023-04-02T10:36:18;7.88;;;2.95;;
24681;SDS011;12802;53.390;-2.328;2023-04-02T10:39:14;7.85;;;2.88;;
24681;SDS011;12802;53.390;-2.328;2023-04-02T10:47:32;7.85;;;2.55;;
24681;SDS011;12802;53.390;-2.328;2023-04-02T10:55:41;13.27;;;2.45;;
24681;SDS011;12802;53.390;-2.328;2023-04-02T10:58:16;10.48;;;2.67;;
24681;SDS011;12802;53.390;-2.328;2023-04-02T11:00:52;8.07;;;2.15;;
24681;SDS011;12802;53.390;-2.328;2023-04-02T11:03:30;9.73;;;2.47;;
24681;SDS011;12802;53.390;-2.328;2023-04-02T11:06:16;9.48;;;3.33;;
24681;SDS011;12802;53.390;-2.328;2023-04-02T11:08:47;9.82;;;3.30;;
24681;SDS011;12802;53.390;-2.328;2023-04-02T11:11:17;9.70;;;2.40;;
24681;SDS011;12802;53.390;-2.328;2023-04-02T11:13:54;19.58;;;2.78;;
24681;SDS011;12802;53.390;-2.328;2023-04-02T11:16:24;4.22;;;2.55;;
24681;SDS011;12802;53.390;-2.328;2023-04-02T11:21:49;5.07;;;2.70;;
24681;SDS011;12802;53.390;-2.328;2023-04-02T11:24:23;9.20;;;2.10;;
24681;SDS011;12802;53.390;-2.328;2023-04-02T11:27:31;10.18;;;2.78;;
24681;SDS011;12802;53.390;-2.328;2023-04-02T11:40:48;11.10;;;3.30;;
24681;SDS011;12802;53.390;-2.328;2023-04-02T11:46:42;9.48;;;3.30;;
24681;SDS011;12802;53.390;-2.328;2023-04-02T11:48:48;16.10;;;3.97;;
24681;SDS011;12802;53.390;-2.328;2023-04-02T11:53:47;9.35;;;3.15;;
24681;SDS011;12802;53.390;-2.328;2023-04-02T11:56:42;9.48;;;3.10;;
24681;SDS011;12802;53.390;-2.328;2023-04-02T11:59:07;10.93;;;3.28;;
24681;SDS011;12802;53.390;-2.328;2023-04-02T12:04:54;9.98;;;2.97;;
24681;SDS011;12802;53.390;-2.328;2023-04-02T12:12:44;8.77;;;3.00;;
24681;SDS011;12802;53.390;-2.328;2023-04-02T12:18:22;9.68;;;3.08;;
24681;SDS011;12802;53.390;-2.328;2023-04-02T12:20:52;5.95;;;2.75;;
24681;SDS011;12802;53.390;-2.328;2023-04-02T12:23:21;8.05;;;2.53;;
24681;SDS011;12802;53.390;-2.328;2023-04-02T12:26:03;10.13;;;3.10;;
24681;SDS011;12802;53.390;-2.328;2023-04-02T12:28:32;5.70;;;3.25;;
24681;SDS011;12802;53.390;-2.328;2023-04-02T12:33:37;12.63;;;3.25;;
24681;SDS011;12802;53.390;-2.328;2023-04-02T12:36:05;12.20;;;3.08;;
24681;SDS011;12802;53.390;-2.328;2023-04-02T12:38:43;7.00;;;2.67;;
24681;SDS011;12802;53.390;-2.328;2023-04-02T12:41:36;6.65;;;2.83;;
24681;SDS011;12802;53.390;-2.328;2023-04-02T12:44:02;10.45;;;3.33;;
24681;SDS011;12802;53.390;-2.328;2023-04-02T12:46:30;10.55;;;3.17;;
24681;SDS011;12802;53.390;-2.328;2023-04-02T12:49:05;7.47;;;3.38;;
24681;SDS011;12802;53.390;-2.328;2023-04-02T12:51:35;15.50;;;3.50;;
24681;SDS011;12802;53.390;-2.328;2023-04-02T12:54:01;12.55;;;3.47;;
24681;SDS011;12802;53.390;-2.328;2023-04-02T12:56:28;17.52;;;3.85;;
24681;SDS011;12802;53.390;-2.328;2023-04-02T12:58:54;7.97;;;3.67;;
24681;SDS011;12802;53.390;-2.328;2023-04-02T13:01:28;8.70;;;2.85;;
24681;SDS011;12802;53.390;-2.328;2023-04-02T13:04:08;8.35;;;3.72;;
24681;SDS011;12802;53.390;-2.328;2023-04-02T13:06:39;15.48;;;2.75;;
24681;SDS011;12802;53.390;-2.328;2023-04-02T13:09:25;7.88;;;3.03;;
24681;SDS011;12802;53.390;-2.328;2023-04-02T13:11:55;9.48;;;2.80;;
24681;SDS011;12802;53.390;-2.328;2023-04-02T13:14:21;6.95;;;2.08;;
24681;SDS011;12802;53.390;-2.328;2023-04-02T13:16:49;9.07;;;2.33;;
24681;SDS011;12802;53.390;-2.328;2023-04-02T13:19:26;10.23;;;3.03;;
24681;SDS011;12802;53.390;-2.328;2023-04-02T13:21:54;5.85;;;2.03;;
24681;SDS011;12802;53.390;-2.328;2023-04-02T13:24:26;12.02;;;3.00;;
24681;SDS011;12802;53.390;-2.328;2023-04-02T13:26:55;8.93;;;2.45;;
24681;SDS011;12802;53.390;-2.328;2023-04-02T13:29:29;14.02;;;2.65;;
24681;SDS011;12802;53.390;-2.328;2023-04-02T13:32:01;5.50;;;2.20;;
24681;SDS011;12802;53.390;-2.328;2023-04-02T13:34:32;9.63;;;2.55;;
24681;SDS011;12802;53.390;-2.328;2023-04-02T13:36:58;5.65;;;2.53;;
24681;SDS011;12802;53.390;-2.328;2023-04-02T13:39:24;6.97;;;2.60;;
24681;SDS011;12802;53.390;-2.328;2023-04-02T13:41:52;6.97;;;2.25;;
24681;SDS011;12802;53.390;-2.328;2023-04-02T13:44:28;11.63;;;2.92;;
24681;SDS011;12802;53.390;-2.328;2023-04-02T13:46:55;5.95;;;2.50;;
24681;SDS011;12802;53.390;-2.328;2023-04-02T13:49:22;7.18;;;2.55;;
24681;SDS011;12802;53.390;-2.328;2023-04-02T13:51:50;10.98;;;3.05;;
24681;SDS011;12802;53.390;-2.328;2023-04-02T13:54:23;11.35;;;3.13;;
24681;SDS011;12802;53.390;-2.328;2023-04-02T13:56:51;9.27;;;2.70;;
24681;SDS011;12802;53.390;-2.328;2023-04-02T13:59:18;6.35;;;2.75;;
24681;SDS011;12802;53.390;-2.328;2023-04-02T14:01:45;8.00;;;2.50;;
24681;SDS011;12802;53.390;-2.328;2023-04-02T14:04:13;7.40;;;2.58;;
24681;SDS011;12802;53.390;-2.328;2023-04-02T14:07:00;5.68;;;2.30;;
24681;SDS011;12802;53.390;-2.328;2023-04-02T14:31:39;9.45;;;2.38;;
24681;SDS011;12802;53.390;-2.328;2023-04-02T14:34:48;7.47;;;2.35;;
24681;SDS011;12802;53.390;-2.328;2023-04-02T14:42:52;5.35;;;2.30;;
24681;SDS011;12802;53.390;-2.328;2023-04-02T14:50:51;12.68;;;2.92;;
24681;SDS011;12802;53.390;-2.328;2023-04-02T14:54:16;7.20;;;2.88;;
24681;SDS011;12802;53.390;-2.328;2023-04-02T14:56:49;12.25;;;3.08;;
24681;SDS011;12802;53.390;-2.328;2023-04-02T14:59:20;14.43;;;2.90;;
24681;SDS011;12802;53.390;-2.328;2023-04-02T15:02:08;4.07;;;2.08;;
24681;SDS011;12802;53.390;-2.328;2023-04-02T15:04:44;13.10;;;2.30;;
24681;SDS011;12802;53.390;-2.328;2023-04-02T15:07:17;9.80;;;3.05;;
24681;SDS011;12802;53.390;-2.328;2023-04-02T15:09:53;5.25;;;2.22;;
24681;SDS011;12802;53.390;-2.328;2023-04-02T15:12:45;10.10;;;2.83;;
24681;SDS011;12802;53.390;-2.328;2023-04-02T15:15:37;6.97;;;2.45;;
24681;SDS011;12802;53.390;-2.328;2023-04-02T15:17:59;11.02;;;3.28;;
24681;SDS011;12802;53.390;-2.328;2023-04-02T15:20:26;12.75;;;2.65;;
24681;SDS011;12802;53.390;-2.328;2023-04-02T15:23:04;5.40;;;2.17;;
24681;SDS011;12802;53.390;-2.328;2023-04-02T15:26:00;10.70;;;2.80;;
24681;SDS011;12802;53.390;-2.328;2023-04-02T15:28:39;5.57;;;2.67;;
24681;SDS011;12802;53.390;-2.328;2023-04-02T15:31:23;5.85;;;2.35;;
24681;SDS011;12802;53.390;-2.328;2023-04-02T15:44:32;6.07;;;2.80;;
24681;SDS011;12802;53.390;-2.328;2023-04-02T15:52:50;6.35;;;2.80;;
24681;SDS011;12802;53.390;-2.328;2023-04-02T15:55:32;7.22;;;3.15;;
24681;SDS011;12802;53.390;-2.328;2023-04-02T16:00:41;7.97;;;2.92;;
24681;SDS011;12802;53.390;-2.328;2023-04-02T16:09:25;9.23;;;2.58;;
24681;SDS011;12802;53.390;-2.328;2023-04-02T16:12:09;11.25;;;2.97;;
24681;SDS011;12802;53.390;-2.328;2023-04-02T16:14:39;10.63;;;2.70;;
24681;SDS011;12802;53.390;-2.328;2023-04-02T16:17:10;10.18;;;2.55;;
24681;SDS011;12802;53.390;-2.328;2023-04-02T16:20:21;5.15;;;2.33;;
24681;SDS011;12802;53.390;-2.328;2023-04-02T16:23:06;10.57;;;2.78;;
24681;SDS011;12802;53.390;-2.328;2023-04-02T16:25:40;9.25;;;2.42;;
24681;SDS011;12802;53.390;-2.328;2023-04-02T16:28:32;7.97;;;3.10;;
24681;SDS011;12802;53.390;-2.328;2023-04-02T16:38:57;8.02;;;2.97;;
24681;SDS011;12802;53.390;-2.328;2023-04-02T16:52:56;4.38;;;2.50;;
24681;SDS011;12802;53.390;-2.328;2023-04-02T16:55:45;9.55;;;3.33;;
24681;SDS011;12802;53.390;-2.328;2023-04-02T17:03:44;5.20;;;2.53;;
24681;SDS011;12802;53.390;-2.328;2023-04-02T17:14:25;11.35;;;2.58;;
24681;SDS011;12802;53.390;-2.328;2023-04-02T17:17:00;5.60;;;2.75;;
24681;SDS011;12802;53.390;-2.328;2023-04-02T17:19:28;5.18;;;2.40;;
24681;SDS011;12802;53.390;-2.328;2023-04-02T17:22:02;11.57;;;3.03;;
24681;SDS011;12802;53.390;-2.328;2023-04-02T17:24:34;7.72;;;2.92;;
24681;SDS011;12802;53.390;-2.328;2023-04-02T17:29:49;8.52;;;3.25;;
24681;SDS011;12802;53.390;-2.328;2023-04-02T17:32:20;13.47;;;3.10;;
24681;SDS011;12802;53.390;-2.328;2023-04-02T17:34:50;10.90;;;3.42;;
24681;SDS011;12802;53.390;-2.328;2023-04-02T17:45:51;6.97;;;3.05;;
24681;SDS011;12802;53.390;-2.328;2023-04-02T17:48:28;4.03;;;2.20;;
24681;SDS011;12802;53.390;-2.328;2023-04-02T17:51:07;8.63;;;3.08;;
24681;SDS011;12802;53.390;-2.328;2023-04-02T18:16:05;9.57;;;3.13;;
24681;SDS011;12802;53.390;-2.328;2023-04-02T18:18:48;6.45;;;2.90;;
24681;SDS011;12802;53.390;-2.328;2023-04-02T18:24:18;7.10;;;3.30;;
24681;SDS011;12802;53.390;-2.328;2023-04-02T18:40:39;9.10;;;3.75;;
24681;SDS011;12802;53.390;-2.328;2023-04-02T18:46:00;10.52;;;3.78;;
24681;SDS011;12802;53.390;-2.328;2023-04-02T18:51:23;6.82;;;3.45;;
24681;SDS011;12802;53.390;-2.328;2023-04-02T18:54:04;11.45;;;3.35;;
24681;SDS011;12802;53.390;-2.328;2023-04-02T18:56:52;15.75;;;3.60;;
24681;SDS011;12802;53.390;-2.328;2023-04-02T18:59:37;7.18;;;3.50;;
24681;SDS011;12802;53.390;-2.328;2023-04-02T19:05:12;6.53;;;2.67;;
24681;SDS011;12802;53.390;-2.328;2023-04-02T19:08:01;9.80;;;2.88;;
24681;SDS011;12802;53.390;-2.328;2023-04-02T19:10:52;10.10;;;3.15;;
24681;SDS011;12802;53.390;-2.328;2023-04-02T19:13:22;4.88;;;2.53;;
24681;SDS011;12802;53.390;-2.328;2023-04-02T19:24:27;4.65;;;2.53;;
24681;SDS011;12802;53.390;-2.328;2023-04-02T19:26:47;4.50;;;2.70;;
24681;SDS011;12802;53.390;-2.328;2023-04-02T19:29:35;9.13;;;3.65;;
24681;SDS011;12802;53.390;-2.328;2023-04-02T19:34:46;13.10;;;4.78;;
24681;SDS011;12802;53.390;-2.328;2023-04-02T19:42:55;17.45;;;6.85;;
24681;SDS011;12802;53.390;-2.328;2023-04-02T19:45:26;14.15;;;6.28;;
24681;SDS011;12802;53.390;-2.328;2023-04-02T19:50:54;7.50;;;3.80;;
24681;SDS011;12802;53.390;-2.328;2023-04-02T19:53:20;13.48;;;4.30;;
24681;SDS011;12802;53.390;-2.328;2023-04-02T19:55:46;10.13;;;4.55;;
24681;SDS011;12802;53.390;-2.328;2023-04-02T20:00:41;13.77;;;4.75;;
24681;SDS011;12802;53.390;-2.328;2023-04-02T20:03:06;8.88;;;4.65;;
24681;SDS011;12802;53.390;-2.328;2023-04-02T20:05:32;10.45;;;4.53;;
24681;SDS011;12802;53.390;-2.328;2023-04-02T20:07:58;10.88;;;5.25;;
24681;SDS011;12802;53.390;-2.328;2023-04-02T20:10:23;11.70;;;5.07;;
24681;SDS011;12802;53.390;-2.328;2023-04-02T20:12:49;15.95;;;4.45;;
24681;SDS011;12802;53.390;-2.328;2023-04-02T20:15:15;14.45;;;3.97;;
24681;SDS011;12802;53.390;-2.328;2023-04-02T20:17:41;7.05;;;3.40;;
24681;SDS011;12802;53.390;-2.328;2023-04-02T20:20:07;7.85;;;3.55;;
24681;SDS011;12802;53.390;-2.328;2023-04-02T20:22:34;18.50;;;4.05;;
24681;SDS011;12802;53.390;-2.328;2023-04-02T20:25:00;9.43;;;3.60;;
24681;SDS011;12802;53.390;-2.328;2023-04-02T20:27:26;12.00;;;3.90;;
24681;SDS011;12802;53.390;-2.328;2023-04-02T20:29:52;9.02;;;3.22;;
24681;SDS011;12802;53.390;-2.328;2023-04-02T20:32:18;12.05;;;4.07;;
24681;SDS011;12802;53.390;-2.328;2023-04-02T20:34:43;12.05;;;3.60;;
24681;SDS011;12802;53.390;-2.328;2023-04-02T20:37:09;7.55;;;2.80;;
24681;SDS011;12802;53.390;-2.328;2023-04-02T20:39:35;9.68;;;3.75;;
24681;SDS011;12802;53.390;-2.328;2023-04-02T20:42:01;12.93;;;4.07;;
24681;SDS011;12802;53.390;-2.328;2023-04-02T20:44:27;12.60;;;4.38;;